BHE1013 ZLDH-ZUCK
Flight info
| Callsign | BHE1013 |
|---|---|
| Flight time | N/A |
| Altitude | 37100 |
| Route | VIKUP1 VIKUP W191 DNC W565 BIGUX B330 OVRAL W242 VIPAG W666 VINEX VINEX2H |
| Aircraft | A320/M-SDE3FGHIRWY/LB1 |
Departure
| Time | 2026-04-19 07:15 |
|---|---|
| Airport | Dunhuang Mogao International Airport (ZLDH) |
Arrival
| Time | N/A |
|---|---|
| Airport | Chongqing Jiangbei International Airport (ZUCK) |
| Time | Latitude | Longitude | Altitude | Speed | Heading |
|---|---|---|---|---|---|
| 2026-04-19 06:56 | 40.16494 | 94.80542 | 3704 ft | 0 kts | 354° |
| 2026-04-19 07:08 | 40.16489 | 94.80542 | 3702 ft | 4 kts | 354° |
| 2026-04-19 07:08 | 40.16462 | 94.80546 | 3708 ft | 4 kts | 354° |
| 2026-04-19 07:08 | 40.16435 | 94.80549 | 3707 ft | 4 kts | 355° |
| 2026-04-19 07:08 | 40.16409 | 94.80554 | 3705 ft | 4 kts | 339° |
| 2026-04-19 07:09 | 40.16394 | 94.80568 | 3703 ft | 2 kts | 264° |
| 2026-04-19 07:09 | 40.16396 | 94.80595 | 3704 ft | 2 kts | 264° |
| 2026-04-19 07:09 | 40.16396 | 94.80597 | 3704 ft | 0 kts | 264° |
| 2026-04-19 07:11 | 40.16394 | 94.80568 | 3703 ft | 7 kts | 264° |
| 2026-04-19 07:11 | 40.16387 | 94.80478 | 3706 ft | 12 kts | 264° |
| 2026-04-19 07:11 | 40.16378 | 94.80368 | 3704 ft | 13 kts | 264° |
| 2026-04-19 07:12 | 40.16370 | 94.80262 | 3706 ft | 5 kts | 259° |
| 2026-04-19 07:12 | 40.16342 | 94.80238 | 3702 ft | 7 kts | 190° |
| 2026-04-19 07:12 | 40.16282 | 94.80246 | 3701 ft | 10 kts | 173° |
| 2026-04-19 07:12 | 40.16205 | 94.80258 | 3699 ft | 13 kts | 173° |
| 2026-04-19 07:13 | 40.16126 | 94.80255 | 3696 ft | 9 kts | 215° |
| 2026-04-19 07:13 | 40.16109 | 94.80170 | 3695 ft | 12 kts | 264° |
| 2026-04-19 07:13 | 40.16098 | 94.80033 | 3694 ft | 16 kts | 264° |
| 2026-04-19 07:13 | 40.16086 | 94.79880 | 3693 ft | 18 kts | 264° |
| 2026-04-19 07:14 | 40.16073 | 94.79714 | 3695 ft | 19 kts | 263° |
| 2026-04-19 07:14 | 40.16060 | 94.79544 | 3694 ft | 17 kts | 266° |
| 2026-04-19 07:14 | 40.16079 | 94.79447 | 3695 ft | 10 kts | 291° |
| 2026-04-19 07:14 | 40.16102 | 94.79364 | 3697 ft | 9 kts | 280° |
| 2026-04-19 07:15 | 40.16084 | 94.79285 | 3698 ft | 11 kts | 219° |
| 2026-04-19 07:15 | 40.16042 | 94.79329 | 3694 ft | 10 kts | 77° |
| 2026-04-19 07:15 | 40.16062 | 94.79549 | 3694 ft | 51 kts | 84° |
| 2026-04-19 07:16 | 40.16119 | 94.80264 | 3696 ft | 107 kts | 84° |
| 2026-04-19 07:16 | 40.16214 | 94.81460 | 3702 ft | 153 kts | 84° |
| 2026-04-19 07:16 | 40.16325 | 94.82871 | 4242 ft | 155 kts | 83° |
| 2026-04-19 07:16 | 40.16432 | 94.84263 | 4935 ft | 156 kts | 82° |
| 2026-04-19 07:17 | 40.16538 | 94.85675 | 5589 ft | 157 kts | 82° |
| 2026-04-19 07:17 | 40.16645 | 94.87119 | 6053 ft | 163 kts | 82° |
| 2026-04-19 07:17 | 40.16768 | 94.88694 | 6283 ft | 186 kts | 82° |
| 2026-04-19 07:17 | 40.16915 | 94.90484 | 6516 ft | 211 kts | 83° |
| 2026-04-19 07:18 | 40.17081 | 94.92504 | 6814 ft | 236 kts | 83° |
| 2026-04-19 07:18 | 40.17256 | 94.94736 | 7252 ft | 254 kts | 83° |
| 2026-04-19 07:18 | 40.17431 | 94.97069 | 7966 ft | 262 kts | 84° |
| 2026-04-19 07:18 | 40.17609 | 94.99484 | 8620 ft | 272 kts | 84° |
| 2026-04-19 07:19 | 40.17793 | 95.01981 | 9270 ft | 280 kts | 84° |
| 2026-04-19 07:19 | 40.17982 | 95.04547 | 9958 ft | 287 kts | 85° |
| 2026-04-19 07:19 | 40.18084 | 95.07213 | 10331 ft | 305 kts | 98° |
| 2026-04-19 07:19 | 40.17282 | 95.09837 | 10544 ft | 323 kts | 129° |
| 2026-04-19 07:20 | 40.15523 | 95.11746 | 10741 ft | 340 kts | 153° |
| 2026-04-19 07:20 | 40.13277 | 95.12840 | 11156 ft | 349 kts | 169° |
| 2026-04-19 07:20 | 40.10860 | 95.13290 | 11687 ft | 354 kts | 177° |
| 2026-04-19 07:20 | 40.08400 | 95.13647 | 12351 ft | 358 kts | 178° |
| 2026-04-19 07:21 | 40.05914 | 95.14006 | 13014 ft | 361 kts | 178° |
| 2026-04-19 07:21 | 40.03400 | 95.14357 | 13661 ft | 365 kts | 178° |
| 2026-04-19 07:21 | 40.00862 | 95.14699 | 14252 ft | 369 kts | 179° |
| 2026-04-19 07:21 | 39.98334 | 95.15039 | 14794 ft | 373 kts | 177° |
| 2026-04-19 07:22 | 39.95776 | 95.15830 | 15330 ft | 384 kts | 164° |
| 2026-04-19 07:22 | 39.93366 | 95.17406 | 15850 ft | 395 kts | 150° |
| 2026-04-19 07:22 | 39.91247 | 95.19754 | 16374 ft | 406 kts | 135° |
| 2026-04-19 07:22 | 39.89599 | 95.22775 | 16918 ft | 415 kts | 120° |
| 2026-04-19 07:23 | 39.88311 | 95.26169 | 17482 ft | 420 kts | 118° |
| 2026-04-19 07:23 | 39.87024 | 95.29602 | 18033 ft | 425 kts | 118° |
| 2026-04-19 07:23 | 39.85717 | 95.33076 | 18556 ft | 430 kts | 118° |
| 2026-04-19 07:23 | 39.84391 | 95.36583 | 19027 ft | 434 kts | 118° |
| 2026-04-19 07:24 | 39.83050 | 95.40127 | 19510 ft | 439 kts | 118° |
| 2026-04-19 07:24 | 39.81690 | 95.43717 | 19992 ft | 444 kts | 118° |
| 2026-04-19 07:24 | 39.80311 | 95.47343 | 20488 ft | 450 kts | 118° |
| 2026-04-19 07:24 | 39.78913 | 95.51007 | 20899 ft | 455 kts | 118° |
| 2026-04-19 07:25 | 39.77501 | 95.54707 | 21386 ft | 459 kts | 117° |
| 2026-04-19 07:25 | 39.76075 | 95.58446 | 21841 ft | 464 kts | 117° |
| 2026-04-19 07:25 | 39.74645 | 95.62223 | 22296 ft | 468 kts | 117° |
| 2026-04-19 07:25 | 39.73210 | 95.66031 | 22704 ft | 472 kts | 116° |
| 2026-04-19 07:26 | 39.71762 | 95.69882 | 23090 ft | 476 kts | 116° |
| 2026-04-19 07:26 | 39.70304 | 95.73765 | 23495 ft | 480 kts | 116° |
| 2026-04-19 07:26 | 39.68831 | 95.77676 | 23854 ft | 484 kts | 116° |
| 2026-04-19 07:26 | 39.67344 | 95.81607 | 24186 ft | 487 kts | 116° |
| 2026-04-19 07:27 | 39.65838 | 95.85578 | 24532 ft | 490 kts | 117° |
| 2026-04-19 07:27 | 39.64323 | 95.89556 | 24872 ft | 493 kts | 117° |
| 2026-04-19 07:27 | 39.62799 | 95.93551 | 25206 ft | 496 kts | 117° |
| 2026-04-19 07:27 | 39.61263 | 95.97573 | 25542 ft | 499 kts | 117° |
| 2026-04-19 07:28 | 39.59720 | 96.01611 | 25880 ft | 502 kts | 117° |
| 2026-04-19 07:28 | 39.58164 | 96.05669 | 26224 ft | 504 kts | 117° |
| 2026-04-19 07:28 | 39.56600 | 96.09747 | 26543 ft | 507 kts | 118° |
| 2026-04-19 07:28 | 39.55017 | 96.13847 | 26875 ft | 510 kts | 118° |
| 2026-04-19 07:29 | 39.53407 | 96.17958 | 27198 ft | 512 kts | 118° |
| 2026-04-19 07:29 | 39.51779 | 96.22069 | 27539 ft | 515 kts | 119° |
| 2026-04-19 07:29 | 39.50136 | 96.26199 | 27856 ft | 518 kts | 119° |
| 2026-04-19 07:29 | 39.48480 | 96.30359 | 28180 ft | 521 kts | 119° |
| 2026-04-19 07:30 | 39.46819 | 96.34534 | 28489 ft | 523 kts | 119° |
| 2026-04-19 07:30 | 39.45154 | 96.38728 | 28856 ft | 524 kts | 119° |
| 2026-04-19 07:30 | 39.43494 | 96.42917 | 29295 ft | 523 kts | 119° |
| 2026-04-19 07:30 | 39.41853 | 96.47052 | 29747 ft | 523 kts | 120° |
| 2026-04-19 07:31 | 39.40167 | 96.51286 | 30199 ft | 523 kts | 120° |
| 2026-04-19 07:31 | 39.38526 | 96.55409 | 30596 ft | 522 kts | 119° |
| 2026-04-19 07:31 | 39.36840 | 96.59632 | 30990 ft | 522 kts | 120° |
| 2026-04-19 07:31 | 39.35174 | 96.63791 | 31384 ft | 521 kts | 120° |
| 2026-04-19 07:32 | 39.33505 | 96.67946 | 31800 ft | 520 kts | 119° |
| 2026-04-19 07:32 | 39.31866 | 96.72030 | 32227 ft | 519 kts | 119° |
| 2026-04-19 07:32 | 39.30208 | 96.76160 | 32657 ft | 518 kts | 119° |
| 2026-04-19 07:32 | 39.28547 | 96.80289 | 33055 ft | 517 kts | 119° |
| 2026-04-19 07:33 | 39.26888 | 96.84404 | 33457 ft | 517 kts | 119° |
| 2026-04-19 07:33 | 39.25239 | 96.88523 | 33817 ft | 517 kts | 118° |
| 2026-04-19 07:33 | 39.23606 | 96.92644 | 34167 ft | 516 kts | 118° |
| 2026-04-19 07:33 | 39.21983 | 96.96769 | 34447 ft | 514 kts | 118° |
| 2026-04-19 07:34 | 39.20367 | 97.00884 | 34744 ft | 514 kts | 118° |
| 2026-04-19 07:34 | 39.18748 | 97.05000 | 35027 ft | 515 kts | 118° |
| 2026-04-19 07:34 | 39.17125 | 97.09107 | 35313 ft | 515 kts | 119° |
| 2026-04-19 07:34 | 39.15491 | 97.13217 | 35573 ft | 515 kts | 119° |
| 2026-04-19 07:35 | 39.13855 | 97.17319 | 35869 ft | 515 kts | 119° |
| 2026-04-19 07:35 | 39.12217 | 97.21415 | 36086 ft | 516 kts | 120° |
| 2026-04-19 07:35 | 39.10573 | 97.25521 | 36334 ft | 517 kts | 120° |
| 2026-04-19 07:35 | 39.08926 | 97.29635 | 36621 ft | 516 kts | 120° |
| 2026-04-19 07:36 | 39.07289 | 97.33734 | 36889 ft | 516 kts | 120° |
| 2026-04-19 07:36 | 39.05647 | 97.37840 | 37069 ft | 516 kts | 120° |
| 2026-04-19 07:36 | 39.03994 | 97.41958 | 37097 ft | 520 kts | 120° |
| 2026-04-19 07:37 | 39.00646 | 97.50249 | 37074 ft | 523 kts | 120° |
| 2026-04-19 07:37 | 38.97291 | 97.58551 | 37066 ft | 523 kts | 120° |
| 2026-04-19 07:38 | 38.93942 | 97.66848 | 37057 ft | 523 kts | 120° |
| 2026-04-19 07:38 | 38.90586 | 97.75132 | 37055 ft | 522 kts | 120° |
| 2026-04-19 07:39 | 38.87219 | 97.83383 | 37048 ft | 522 kts | 121° |
| 2026-04-19 07:39 | 38.83842 | 97.91637 | 37036 ft | 522 kts | 121° |
| 2026-04-19 07:40 | 38.80467 | 97.99879 | 37028 ft | 522 kts | 120° |
| 2026-04-19 07:40 | 38.77083 | 98.08128 | 37031 ft | 522 kts | 121° |
| 2026-04-19 07:41 | 38.73700 | 98.16350 | 37020 ft | 522 kts | 121° |
| 2026-04-19 07:41 | 38.70307 | 98.24560 | 37010 ft | 522 kts | 121° |
| 2026-04-19 07:42 | 38.66926 | 98.32737 | 36988 ft | 519 kts | 121° |
| 2026-04-19 07:42 | 38.63535 | 98.40920 | 36974 ft | 521 kts | 121° |
| 2026-04-19 07:43 | 38.60159 | 98.49040 | 36986 ft | 521 kts | 121° |
| 2026-04-19 07:43 | 38.56756 | 98.57200 | 36975 ft | 521 kts | 121° |
| 2026-04-19 07:44 | 38.53333 | 98.65370 | 36975 ft | 522 kts | 121° |
| 2026-04-19 07:44 | 38.49903 | 98.73544 | 36970 ft | 522 kts | 121° |
| 2026-04-19 07:45 | 38.46470 | 98.81715 | 36971 ft | 523 kts | 121° |
| 2026-04-19 07:45 | 38.43022 | 98.89887 | 36992 ft | 524 kts | 121° |
| 2026-04-19 07:46 | 38.39563 | 98.98077 | 37012 ft | 524 kts | 121° |
| 2026-04-19 07:46 | 38.36106 | 99.06249 | 37013 ft | 524 kts | 122° |
| 2026-04-19 07:47 | 38.32635 | 99.14421 | 37031 ft | 525 kts | 122° |
| 2026-04-19 07:47 | 38.29156 | 99.22574 | 37037 ft | 524 kts | 122° |
| 2026-04-19 07:48 | 38.25669 | 99.30717 | 37048 ft | 524 kts | 122° |
| 2026-04-19 07:48 | 38.22180 | 99.38860 | 37058 ft | 523 kts | 122° |
| 2026-04-19 07:49 | 38.18694 | 99.46984 | 37078 ft | 524 kts | 122° |
| 2026-04-19 07:49 | 38.15204 | 99.55103 | 37090 ft | 523 kts | 122° |
| 2026-04-19 07:50 | 38.11733 | 99.63149 | 37099 ft | 522 kts | 122° |
| 2026-04-19 07:50 | 38.08242 | 99.71232 | 37113 ft | 522 kts | 123° |
| 2026-04-19 07:51 | 38.04749 | 99.79297 | 37120 ft | 521 kts | 123° |
| 2026-04-19 07:51 | 38.01249 | 99.87340 | 37122 ft | 521 kts | 123° |
| 2026-04-19 07:52 | 37.97747 | 99.95373 | 37123 ft | 520 kts | 123° |
| 2026-04-19 07:52 | 37.94246 | 100.03397 | 37125 ft | 520 kts | 123° |
| 2026-04-19 07:53 | 37.90736 | 100.11407 | 37120 ft | 520 kts | 123° |
| 2026-04-19 07:53 | 37.87222 | 100.19411 | 37121 ft | 520 kts | 123° |
| 2026-04-19 07:54 | 37.83702 | 100.27405 | 37121 ft | 520 kts | 123° |
| 2026-04-19 07:54 | 37.80777 | 100.34032 | 37126 ft | 519 kts | 123° |
| 2026-04-19 07:55 | 37.76658 | 100.43325 | 37125 ft | 518 kts | 123° |
| 2026-04-19 07:55 | 37.73735 | 100.49925 | 37128 ft | 518 kts | 123° |
| 2026-04-19 07:56 | 37.70213 | 100.57858 | 37129 ft | 518 kts | 123° |
| 2026-04-19 07:56 | 37.66680 | 100.65786 | 37132 ft | 518 kts | 123° |
| 2026-04-19 07:57 | 37.63190 | 100.73734 | 37131 ft | 518 kts | 122° |
| 2026-04-19 07:57 | 37.59831 | 100.81780 | 37137 ft | 519 kts | 121° |
| 2026-04-19 07:58 | 37.56502 | 100.89838 | 37138 ft | 518 kts | 122° |
| 2026-04-19 07:58 | 37.53134 | 100.97866 | 37155 ft | 519 kts | 122° |
| 2026-04-19 07:59 | 37.49738 | 101.05845 | 37131 ft | 515 kts | 122° |
| 2026-04-19 07:59 | 37.46349 | 101.13785 | 37139 ft | 515 kts | 123° |
| 2026-04-19 08:00 | 37.42964 | 101.21730 | 37153 ft | 515 kts | 123° |
| 2026-04-19 08:00 | 37.39602 | 101.29607 | 37162 ft | 515 kts | 122° |
| 2026-04-19 08:01 | 37.36211 | 101.37532 | 37166 ft | 514 kts | 122° |
| 2026-04-19 08:01 | 37.32815 | 101.45430 | 37168 ft | 513 kts | 123° |
| 2026-04-19 08:02 | 37.29645 | 101.53457 | 37180 ft | 517 kts | 113° |
| 2026-04-19 08:02 | 37.27589 | 101.62149 | 37190 ft | 520 kts | 109° |
| 2026-04-19 08:03 | 37.25600 | 101.70867 | 37169 ft | 518 kts | 109° |
| 2026-04-19 08:03 | 37.23599 | 101.79533 | 37165 ft | 515 kts | 109° |
| 2026-04-19 08:04 | 37.21598 | 101.88178 | 37200 ft | 517 kts | 109° |
| 2026-04-19 08:04 | 37.19601 | 101.96850 | 37192 ft | 517 kts | 109° |
| 2026-04-19 08:05 | 37.17594 | 102.05524 | 37195 ft | 518 kts | 109° |
| 2026-04-19 08:05 | 37.15577 | 102.14201 | 37236 ft | 518 kts | 109° |
| 2026-04-19 08:06 | 37.13541 | 102.22869 | 37262 ft | 518 kts | 110° |
| 2026-04-19 08:06 | 37.11282 | 102.31413 | 37281 ft | 514 kts | 120° |
| 2026-04-19 08:07 | 37.07778 | 102.39077 | 37286 ft | 505 kts | 127° |
| 2026-04-19 08:07 | 37.04055 | 102.46519 | 37304 ft | 504 kts | 127° |
| 2026-04-19 08:08 | 37.00337 | 102.53954 | 37314 ft | 503 kts | 127° |
| 2026-04-19 08:08 | 36.96639 | 102.61332 | 37337 ft | 505 kts | 127° |
| 2026-04-19 08:09 | 36.92914 | 102.68766 | 37339 ft | 504 kts | 127° |
| 2026-04-19 08:09 | 36.89184 | 102.76182 | 37352 ft | 504 kts | 128° |
| 2026-04-19 08:10 | 36.85447 | 102.83596 | 37365 ft | 504 kts | 128° |
| 2026-04-19 08:10 | 36.81736 | 102.91017 | 37354 ft | 506 kts | 124° |
| 2026-04-19 08:11 | 36.78632 | 102.98942 | 37361 ft | 509 kts | 120° |
| 2026-04-19 08:11 | 36.75560 | 103.06886 | 37363 ft | 509 kts | 120° |
| 2026-04-19 08:12 | 36.72472 | 103.14816 | 37375 ft | 508 kts | 121° |
| 2026-04-19 08:12 | 36.69386 | 103.22745 | 37381 ft | 508 kts | 121° |
| 2026-04-19 08:13 | 36.66301 | 103.30662 | 37402 ft | 508 kts | 121° |
| 2026-04-19 08:13 | 36.63209 | 103.38569 | 37418 ft | 508 kts | 120° |
| 2026-04-19 08:14 | 36.60111 | 103.46467 | 37435 ft | 507 kts | 121° |
| 2026-04-19 08:14 | 36.55470 | 103.58298 | 37445 ft | 507 kts | 121° |
| 2026-04-19 08:15 | 36.52280 | 103.66092 | 37447 ft | 504 kts | 124° |
| 2026-04-19 08:15 | 36.48755 | 103.73600 | 37449 ft | 502 kts | 127° |
| 2026-04-19 08:16 | 36.45121 | 103.81010 | 37442 ft | 502 kts | 126° |
| 2026-04-19 08:16 | 36.41560 | 103.88461 | 37445 ft | 502 kts | 125° |
| 2026-04-19 08:17 | 36.38080 | 103.95917 | 37444 ft | 502 kts | 125° |
| 2026-04-19 08:17 | 36.34587 | 104.03411 | 37451 ft | 502 kts | 125° |
| 2026-04-19 08:18 | 36.31061 | 104.10872 | 37452 ft | 501 kts | 125° |
| 2026-04-19 08:18 | 36.27526 | 104.18312 | 37449 ft | 501 kts | 125° |
| 2026-04-19 08:19 | 36.23834 | 104.25595 | 37445 ft | 494 kts | 135° |
| 2026-04-19 08:19 | 36.21498 | 104.28639 | 37446 ft | 484 kts | 146° |
| 2026-04-19 08:19 | 36.18832 | 104.31103 | 37442 ft | 473 kts | 156° |
| 2026-04-19 08:20 | 36.12913 | 104.34157 | 37436 ft | 452 kts | 176° |
| 2026-04-19 08:20 | 36.06799 | 104.34855 | 37426 ft | 438 kts | 187° |
| 2026-04-19 08:21 | 36.00692 | 104.34955 | 37420 ft | 439 kts | 187° |
| 2026-04-19 08:21 | 35.94575 | 104.35052 | 37411 ft | 440 kts | 187° |
| 2026-04-19 08:22 | 35.88438 | 104.35154 | 37414 ft | 441 kts | 187° |
| 2026-04-19 08:22 | 35.82329 | 104.35260 | 37411 ft | 442 kts | 187° |
| 2026-04-19 08:23 | 35.76179 | 104.35364 | 37413 ft | 442 kts | 187° |
| 2026-04-19 08:23 | 35.70025 | 104.35465 | 37420 ft | 443 kts | 187° |
| 2026-04-19 08:24 | 35.63868 | 104.35564 | 37416 ft | 443 kts | 187° |
| 2026-04-19 08:24 | 35.57699 | 104.35660 | 37421 ft | 443 kts | 187° |
| 2026-04-19 08:25 | 35.51535 | 104.35753 | 37411 ft | 443 kts | 187° |
| 2026-04-19 08:25 | 35.45372 | 104.35853 | 37404 ft | 443 kts | 187° |
| 2026-04-19 08:26 | 35.39204 | 104.35952 | 37405 ft | 443 kts | 187° |
| 2026-04-19 08:26 | 35.33036 | 104.36054 | 37405 ft | 443 kts | 187° |
| 2026-04-19 08:27 | 35.26876 | 104.36155 | 37405 ft | 443 kts | 187° |
| 2026-04-19 08:27 | 35.20715 | 104.36249 | 37394 ft | 442 kts | 187° |
| 2026-04-19 08:28 | 35.14560 | 104.36345 | 37392 ft | 442 kts | 187° |
| 2026-04-19 08:28 | 35.08407 | 104.36438 | 37383 ft | 442 kts | 187° |
| 2026-04-19 08:29 | 35.02297 | 104.36536 | 37383 ft | 442 kts | 187° |
| 2026-04-19 08:29 | 34.96141 | 104.36637 | 37375 ft | 442 kts | 187° |
| 2026-04-19 08:30 | 34.89981 | 104.36733 | 37376 ft | 443 kts | 187° |
| 2026-04-19 08:30 | 34.83810 | 104.36827 | 37377 ft | 443 kts | 187° |
| 2026-04-19 08:31 | 34.77637 | 104.36920 | 37377 ft | 444 kts | 187° |
| 2026-04-19 08:31 | 34.71459 | 104.37016 | 37384 ft | 444 kts | 187° |
| 2026-04-19 08:32 | 34.65276 | 104.37122 | 37380 ft | 445 kts | 186° |
| 2026-04-19 08:32 | 34.59084 | 104.37222 | 37383 ft | 445 kts | 186° |
| 2026-04-19 08:33 | 34.52893 | 104.37319 | 37383 ft | 445 kts | 186° |
| 2026-04-19 08:33 | 34.46705 | 104.37416 | 37386 ft | 445 kts | 186° |
| 2026-04-19 08:34 | 34.40517 | 104.37513 | 37377 ft | 445 kts | 186° |
| 2026-04-19 08:34 | 34.34374 | 104.37601 | 37367 ft | 444 kts | 186° |
| 2026-04-19 08:35 | 34.28189 | 104.37707 | 37370 ft | 444 kts | 186° |
| 2026-04-19 08:35 | 34.22005 | 104.37808 | 37350 ft | 444 kts | 186° |
| 2026-04-19 08:36 | 34.15828 | 104.37898 | 37337 ft | 445 kts | 185° |
| 2026-04-19 08:36 | 34.09631 | 104.37986 | 37343 ft | 445 kts | 185° |
| 2026-04-19 08:37 | 34.03437 | 104.38078 | 37333 ft | 445 kts | 185° |
| 2026-04-19 08:37 | 33.97242 | 104.38181 | 37332 ft | 445 kts | 185° |
| 2026-04-19 08:38 | 33.91052 | 104.38269 | 37320 ft | 445 kts | 185° |
| 2026-04-19 08:38 | 33.84894 | 104.38363 | 37318 ft | 445 kts | 185° |
| 2026-04-19 08:39 | 33.78699 | 104.38464 | 37308 ft | 445 kts | 185° |
| 2026-04-19 08:39 | 33.72512 | 104.38563 | 37299 ft | 445 kts | 185° |
| 2026-04-19 08:40 | 33.66324 | 104.38662 | 37290 ft | 445 kts | 185° |
| 2026-04-19 08:40 | 33.60144 | 104.39662 | 37277 ft | 457 kts | 167° |
| 2026-04-19 08:41 | 33.54365 | 104.43023 | 37269 ft | 467 kts | 154° |
| 2026-04-19 08:41 | 33.48792 | 104.47032 | 37253 ft | 468 kts | 154° |
| 2026-04-19 08:42 | 33.43205 | 104.51033 | 37246 ft | 468 kts | 154° |
| 2026-04-19 08:42 | 33.37359 | 104.54250 | 37232 ft | 457 kts | 169° |
| 2026-04-19 08:43 | 33.31196 | 104.55316 | 37226 ft | 449 kts | 182° |
| 2026-04-19 08:43 | 33.24956 | 104.55699 | 37218 ft | 449 kts | 182° |
| 2026-04-19 08:44 | 33.18708 | 104.56105 | 37210 ft | 450 kts | 182° |
| 2026-04-19 08:44 | 33.12456 | 104.56512 | 37194 ft | 450 kts | 182° |